Terminal Aerodrome Forecast
Issued by NWS

Home | Current Version | Previous Version | Text Only | Print | Product List | Glossary On
Versions: 1 2 3 4 5 6 7 8 9 10 11 12 13 14 15 16 17 18
640
FTUS41 KILN 221836 AAB
TAFLUK
TAF AMD
KLUK 221836Z 2219/2318 29010KT P6SM VCSH BKN040
      TEMPO 2219/2221 5SM -SHRA BR BKN025
     FM222100 29006KT P6SM BKN040
     FM230500 33003KT P6SM SCT150
      TEMPO 2308/2312 4SM BR
     FM231500 31006KT P6SM SCT050=

USA.gov is the U.S. government's official web portal to all federal, state and local government web resources and services.